This is the latest recevied weather packets stored in our database for station/object GJ7DNI-13. If no packets are shown the sender has not sent any weather packets the latest 1 day(s).
| Time | Temp. | Humidity | Pressure | Rain* | Wind** | Luminosity | Snow |
|---|---|---|---|---|---|---|---|
| 1778079585 | 13.33° C | 81% | 1010.3 hPa | 0 mm | - | 58 W/m² | - |
| 1778078394 | 16.11° C | 59% | 1011.6 hPa | 0 mm | - | 374 W/m² | - |
| 1778078094 | 16.67° C | 57% | 1011.6 hPa | 0 mm | - | 406 W/m² | - |
| 1778077794 | 16.67° C | 58% | 1011.6 hPa | 0 mm | - | 438 W/m² | - |
| 1778077494 | 16.11° C | 59% | 1011.7 hPa | 0 mm | - | 814 W/m² | - |
| 1778077194 | 15.56° C | 61% | 1011.7 hPa | 0 mm | - | 547 W/m² | - |
| 1778076894 | 15.56° C | 63% | 1011.8 hPa | 0 mm | - | 429 W/m² | - |
| 1778076594 | 14.44° C | 66% | 1011.8 hPa | 0 mm | - | 427 W/m² | - |
| 1778076294 | 14.44° C | 66% | 1011.8 hPa | 0 mm | - | 334 W/m² | - |
| 1778075994 | 13.89° C | 68% | 1011.8 hPa | 0 mm | - | 348 W/m² | - |
| 1778075694 | 13.33° C | 69% | 1011.8 hPa | 0 mm | - | 299 W/m² | - |
| 1778075394 | 13.33° C | 70% | 1011.8 hPa | 0 mm | - | 225 W/m² | - |
| 1778075094 | 13.33° C | 71% | 1011.8 hPa | 0 mm | - | 127 W/m² | - |
| 1778074794 | 13.33° C | 72% | 1011.8 hPa | 0 mm | - | 104 W/m² | - |
| 1778074494 | 13.33° C | 73% | 1011.8 hPa | 0 mm | - | 109 W/m² | - |
| 1778074194 | 13.89° C | 72% | 1011.8 hPa | 0 mm | - | 120 W/m² | - |
| 1778073894 | 13.89° C | 73% | 1011.8 hPa | 0 mm | - | 132 W/m² | - |
| 1778073594 | 13.89° C | 72% | 1011.8 hPa | 0 mm | - | 146 W/m² | - |
| 1778073294 | 13.89° C | 72% | 1011.7 hPa | 0 mm | - | 141 W/m² | - |
| 1778072994 | 14.44° C | 71% | 1011.8 hPa | 0 mm | - | 127 W/m² | - |
| 1778072694 | 14.44° C | 71% | 1011.7 hPa | 0 mm | - | 144 W/m² | - |
| 1778072394 | 14.44° C | 70% | 1011.7 hPa | 0 mm | - | 165 W/m² | - |
| 1778072094 | 14.44° C | 70% | 1011.7 hPa | 0 mm | - | 167 W/m² | - |
| 1778071794 | 14.44° C | 70% | 1011.7 hPa | 0 mm | - | 178 W/m² | - |
| 1778071494 | 14.44° C | 69% | 1011.6 hPa | 0 mm | - | 220 W/m² | - |
* Rain latest hour (hover to see other rain measurements)
** Current wind speed in m/s (hover to see current wind gust speed)